sensor_id;sensor_type;location;lat;lon;timestamp;P1;durP1;ratioP1;P2;durP2;ratioP2
6564;SDS011;3316;44.118;27.258;2022-10-15T00:01:38;5.53;;;4.33;;
6564;SDS011;3316;44.118;27.258;2022-10-15T00:04:03;9.03;;;4.30;;
6564;SDS011;3316;44.118;27.258;2022-10-15T00:06:29;6.87;;;3.93;;
6564;SDS011;3316;44.118;27.258;2022-10-15T00:08:55;6.57;;;4.60;;
6564;SDS011;3316;44.118;27.258;2022-10-15T00:11:22;10.40;;;4.43;;
6564;SDS011;3316;44.118;27.258;2022-10-15T00:13:53;7.70;;;3.77;;
6564;SDS011;3316;44.118;27.258;2022-10-15T00:16:20;6.03;;;3.80;;
6564;SDS011;3316;44.118;27.258;2022-10-15T00:18:47;7.37;;;4.27;;
6564;SDS011;3316;44.118;27.258;2022-10-15T00:21:14;7.63;;;4.50;;
6564;SDS011;3316;44.118;27.258;2022-10-15T00:23:41;4.93;;;3.80;;
6564;SDS011;3316;44.118;27.258;2022-10-15T00:26:08;5.40;;;3.83;;
6564;SDS011;3316;44.118;27.258;2022-10-15T00:28:39;9.57;;;4.50;;
6564;SDS011;3316;44.118;27.258;2022-10-15T00:31:06;7.50;;;4.47;;
6564;SDS011;3316;44.118;27.258;2022-10-15T00:33:36;9.63;;;5.40;;
6564;SDS011;3316;44.118;27.258;2022-10-15T00:36:06;13.00;;;5.90;;
6564;SDS011;3316;44.118;27.258;2022-10-15T00:38:33;12.40;;;5.70;;
6564;SDS011;3316;44.118;27.258;2022-10-15T00:40:59;8.10;;;5.70;;
6564;SDS011;3316;44.118;27.258;2022-10-15T00:48:57;15.77;;;6.30;;
6564;SDS011;3316;44.118;27.258;2022-10-15T00:51:35;10.23;;;6.50;;
6564;SDS011;3316;44.118;27.258;2022-10-15T00:54:06;12.00;;;6.83;;
6564;SDS011;3316;44.118;27.258;2022-10-15T00:56:32;10.63;;;6.17;;
6564;SDS011;3316;44.118;27.258;2022-10-15T00:59:00;12.00;;;6.27;;
6564;SDS011;3316;44.118;27.258;2022-10-15T01:01:26;10.17;;;5.30;;
6564;SDS011;3316;44.118;27.258;2022-10-15T01:03:53;9.97;;;5.30;;
6564;SDS011;3316;44.118;27.258;2022-10-15T01:06:19;8.67;;;5.90;;
6564;SDS011;3316;44.118;27.258;2022-10-15T01:08:45;10.43;;;5.27;;
6564;SDS011;3316;44.118;27.258;2022-10-15T01:11:56;8.10;;;5.50;;
6564;SDS011;3316;44.118;27.258;2022-10-15T01:14:01;10.23;;;5.17;;
6564;SDS011;3316;44.118;27.258;2022-10-15T01:19:13;11.23;;;5.03;;
6564;SDS011;3316;44.118;27.258;2022-10-15T01:22:05;10.43;;;5.40;;
6564;SDS011;3316;44.118;27.258;2022-10-15T01:41:23;10.87;;;5.07;;
6564;SDS011;3316;44.118;27.258;2022-10-15T01:43:46;9.87;;;5.20;;
6564;SDS011;3316;44.118;27.258;2022-10-15T01:46:19;11.43;;;5.63;;
6564;SDS011;3316;44.118;27.258;2022-10-15T01:48:58;9.47;;;4.77;;
6564;SDS011;3316;44.118;27.258;2022-10-15T01:51:27;7.60;;;4.37;;
6564;SDS011;3316;44.118;27.258;2022-10-15T01:53:55;5.93;;;4.23;;
6564;SDS011;3316;44.118;27.258;2022-10-15T01:56:23;5.73;;;4.13;;
6564;SDS011;3316;44.118;27.258;2022-10-15T01:58:50;5.80;;;4.30;;
6564;SDS011;3316;44.118;27.258;2022-10-15T02:01:19;6.27;;;4.40;;
6564;SDS011;3316;44.118;27.258;2022-10-15T02:03:48;9.10;;;4.53;;
6564;SDS011;3316;44.118;27.258;2022-10-15T02:06:22;5.73;;;4.10;;
6564;SDS011;3316;44.118;27.258;2022-10-15T02:09:10;6.23;;;4.20;;
6564;SDS011;3316;44.118;27.258;2022-10-15T02:11:52;8.67;;;4.70;;
6564;SDS011;3316;44.118;27.258;2022-10-15T02:14:31;9.10;;;5.23;;
6564;SDS011;3316;44.118;27.258;2022-10-15T02:17:08;9.10;;;5.00;;
6564;SDS011;3316;44.118;27.258;2022-10-15T02:19:48;12.40;;;5.83;;
6564;SDS011;3316;44.118;27.258;2022-10-15T02:22:18;8.50;;;5.67;;
6564;SDS011;3316;44.118;27.258;2022-10-15T02:24:52;8.33;;;5.17;;
6564;SDS011;3316;44.118;27.258;2022-10-15T02:27:22;9.80;;;5.40;;
6564;SDS011;3316;44.118;27.258;2022-10-15T02:29:50;12.63;;;5.10;;
6564;SDS011;3316;44.118;27.258;2022-10-15T02:32:18;6.27;;;4.80;;
6564;SDS011;3316;44.118;27.258;2022-10-15T02:34:45;8.50;;;4.47;;
6564;SDS011;3316;44.118;27.258;2022-10-15T02:37:12;7.50;;;4.60;;
6564;SDS011;3316;44.118;27.258;2022-10-15T02:39:39;6.83;;;4.23;;
6564;SDS011;3316;44.118;27.258;2022-10-15T02:42:05;8.50;;;4.87;;
6564;SDS011;3316;44.118;27.258;2022-10-15T02:44:30;6.57;;;4.90;;
6564;SDS011;3316;44.118;27.258;2022-10-15T02:46:56;7.67;;;4.83;;
6564;SDS011;3316;44.118;27.258;2022-10-15T02:49:23;11.20;;;4.90;;
6564;SDS011;3316;44.118;27.258;2022-10-15T02:51:49;11.17;;;4.47;;
6564;SDS011;3316;44.118;27.258;2022-10-15T02:54:14;6.07;;;4.30;;
6564;SDS011;3316;44.118;27.258;2022-10-15T02:56:40;8.00;;;4.40;;
6564;SDS011;3316;44.118;27.258;2022-10-15T02:59:06;10.17;;;4.20;;
6564;SDS011;3316;44.118;27.258;2022-10-15T03:01:31;11.90;;;4.57;;
6564;SDS011;3316;44.118;27.258;2022-10-15T03:03:57;9.73;;;4.80;;
6564;SDS011;3316;44.118;27.258;2022-10-15T03:06:22;12.43;;;5.00;;
6564;SDS011;3316;44.118;27.258;2022-10-15T03:08:48;9.73;;;4.57;;
6564;SDS011;3316;44.118;27.258;2022-10-15T03:11:14;12.60;;;5.20;;
6564;SDS011;3316;44.118;27.258;2022-10-15T03:13:39;9.47;;;4.93;;
6564;SDS011;3316;44.118;27.258;2022-10-15T03:16:06;8.83;;;5.10;;
6564;SDS011;3316;44.118;27.258;2022-10-15T03:18:33;10.53;;;4.90;;
6564;SDS011;3316;44.118;27.258;2022-10-15T03:20:58;5.77;;;4.87;;
6564;SDS011;3316;44.118;27.258;2022-10-15T03:23:24;9.53;;;5.10;;
6564;SDS011;3316;44.118;27.258;2022-10-15T03:25:50;11.70;;;5.87;;
6564;SDS011;3316;44.118;27.258;2022-10-15T03:28:16;11.03;;;5.37;;
6564;SDS011;3316;44.118;27.258;2022-10-15T03:30:42;10.07;;;5.93;;
6564;SDS011;3316;44.118;27.258;2022-10-15T03:33:07;15.73;;;8.20;;
6564;SDS011;3316;44.118;27.258;2022-10-15T03:35:33;11.97;;;7.93;;
6564;SDS011;3316;44.118;27.258;2022-10-15T03:37:59;10.80;;;7.60;;
6564;SDS011;3316;44.118;27.258;2022-10-15T03:40:24;10.90;;;8.10;;
6564;SDS011;3316;44.118;27.258;2022-10-15T03:42:50;14.60;;;9.07;;
6564;SDS011;3316;44.118;27.258;2022-10-15T03:45:19;16.77;;;8.43;;
6564;SDS011;3316;44.118;27.258;2022-10-15T03:47:44;14.93;;;9.07;;
6564;SDS011;3316;44.118;27.258;2022-10-15T03:50:10;15.00;;;8.50;;
6564;SDS011;3316;44.118;27.258;2022-10-15T03:52:36;13.40;;;8.07;;
6564;SDS011;3316;44.118;27.258;2022-10-15T03:55:03;16.30;;;8.13;;
6564;SDS011;3316;44.118;27.258;2022-10-15T03:57:29;16.07;;;8.37;;
6564;SDS011;3316;44.118;27.258;2022-10-15T03:59:54;17.40;;;8.10;;
6564;SDS011;3316;44.118;27.258;2022-10-15T04:02:20;13.93;;;7.90;;
6564;SDS011;3316;44.118;27.258;2022-10-15T04:04:45;14.80;;;8.53;;
6564;SDS011;3316;44.118;27.258;2022-10-15T04:07:11;19.27;;;10.27;;
6564;SDS011;3316;44.118;27.258;2022-10-15T04:09:36;21.80;;;10.00;;
6564;SDS011;3316;44.118;27.258;2022-10-15T04:12:02;18.53;;;9.00;;
6564;SDS011;3316;44.118;27.258;2022-10-15T04:14:28;12.13;;;8.47;;
6564;SDS011;3316;44.118;27.258;2022-10-15T04:16:54;16.73;;;9.87;;
6564;SDS011;3316;44.118;27.258;2022-10-15T04:19:20;13.10;;;8.13;;
6564;SDS011;3316;44.118;27.258;2022-10-15T04:21:46;10.83;;;8.37;;
6564;SDS011;3316;44.118;27.258;2022-10-15T04:24:11;12.27;;;8.10;;
6564;SDS011;3316;44.118;27.258;2022-10-15T04:26:37;18.80;;;9.30;;
6564;SDS011;3316;44.118;27.258;2022-10-15T04:29:02;10.90;;;7.93;;
6564;SDS011;3316;44.118;27.258;2022-10-15T04:31:28;11.60;;;7.60;;
6564;SDS011;3316;44.118;27.258;2022-10-15T04:33:53;20.03;;;8.70;;
6564;SDS011;3316;44.118;27.258;2022-10-15T04:36:19;12.53;;;8.53;;
6564;SDS011;3316;44.118;27.258;2022-10-15T04:38:44;16.27;;;8.27;;
6564;SDS011;3316;44.118;27.258;2022-10-15T04:41:10;14.70;;;8.53;;
6564;SDS011;3316;44.118;27.258;2022-10-15T04:43:37;19.60;;;9.00;;
6564;SDS011;3316;44.118;27.258;2022-10-15T04:46:04;14.87;;;8.33;;
6564;SDS011;3316;44.118;27.258;2022-10-15T04:48:31;17.10;;;8.47;;
6564;SDS011;3316;44.118;27.258;2022-10-15T04:51:18;16.13;;;7.73;;
6564;SDS011;3316;44.118;27.258;2022-10-15T04:53:45;13.20;;;7.57;;
6564;SDS011;3316;44.118;27.258;2022-10-15T04:56:11;12.97;;;7.40;;
6564;SDS011;3316;44.118;27.258;2022-10-15T04:58:40;14.70;;;8.67;;
6564;SDS011;3316;44.118;27.258;2022-10-15T05:01:06;13.07;;;7.47;;
6564;SDS011;3316;44.118;27.258;2022-10-15T05:03:36;14.63;;;7.83;;
6564;SDS011;3316;44.118;27.258;2022-10-15T05:06:03;14.00;;;7.70;;
6564;SDS011;3316;44.118;27.258;2022-10-15T05:08:49;12.43;;;7.60;;
6564;SDS011;3316;44.118;27.258;2022-10-15T05:11:25;19.30;;;8.17;;
6564;SDS011;3316;44.118;27.258;2022-10-15T05:13:53;33.27;;;9.00;;
6564;SDS011;3316;44.118;27.258;2022-10-15T05:16:24;15.17;;;8.33;;
6564;SDS011;3316;44.118;27.258;2022-10-15T05:18:51;11.00;;;6.80;;
6564;SDS011;3316;44.118;27.258;2022-10-15T05:21:19;12.07;;;6.93;;
6564;SDS011;3316;44.118;27.258;2022-10-15T05:23:45;13.07;;;7.50;;
6564;SDS011;3316;44.118;27.258;2022-10-15T05:26:12;13.50;;;7.10;;
6564;SDS011;3316;44.118;27.258;2022-10-15T05:28:40;12.40;;;6.70;;
6564;SDS011;3316;44.118;27.258;2022-10-15T05:31:06;13.33;;;7.40;;
6564;SDS011;3316;44.118;27.258;2022-10-15T05:33:36;12.07;;;7.47;;
6564;SDS011;3316;44.118;27.258;2022-10-15T05:36:11;17.13;;;7.40;;
6564;SDS011;3316;44.118;27.258;2022-10-15T05:38:52;22.20;;;7.00;;
6564;SDS011;3316;44.118;27.258;2022-10-15T05:41:18;14.97;;;6.93;;
6564;SDS011;3316;44.118;27.258;2022-10-15T05:43:48;14.43;;;7.40;;
6564;SDS011;3316;44.118;27.258;2022-10-15T05:46:14;13.93;;;6.80;;
6564;SDS011;3316;44.118;27.258;2022-10-15T05:48:40;19.80;;;6.83;;
6564;SDS011;3316;44.118;27.258;2022-10-15T05:51:07;11.83;;;6.60;;
6564;SDS011;3316;44.118;27.258;2022-10-15T05:53:36;16.70;;;6.57;;
6564;SDS011;3316;44.118;27.258;2022-10-15T05:56:02;14.50;;;7.00;;
6564;SDS011;3316;44.118;27.258;2022-10-15T05:58:28;11.90;;;6.27;;
6564;SDS011;3316;44.118;27.258;2022-10-15T06:00:54;18.43;;;7.10;;
6564;SDS011;3316;44.118;27.258;2022-10-15T06:03:22;25.83;;;7.63;;
6564;SDS011;3316;44.118;27.258;2022-10-15T06:05:48;12.87;;;6.30;;
6564;SDS011;3316;44.118;27.258;2022-10-15T06:08:13;9.87;;;6.03;;
6564;SDS011;3316;44.118;27.258;2022-10-15T06:10:39;16.73;;;6.70;;
6564;SDS011;3316;44.118;27.258;2022-10-15T06:13:04;12.83;;;7.40;;
6564;SDS011;3316;44.118;27.258;2022-10-15T06:15:30;17.87;;;8.47;;
6564;SDS011;3316;44.118;27.258;2022-10-15T06:17:56;27.33;;;6.60;;
6564;SDS011;3316;44.118;27.258;2022-10-15T06:20:22;13.20;;;6.90;;
6564;SDS011;3316;44.118;27.258;2022-10-15T06:22:47;10.57;;;6.67;;
6564;SDS011;3316;44.118;27.258;2022-10-15T06:25:13;9.27;;;6.17;;
6564;SDS011;3316;44.118;27.258;2022-10-15T06:27:38;11.70;;;6.30;;
6564;SDS011;3316;44.118;27.258;2022-10-15T06:30:04;14.20;;;6.97;;
6564;SDS011;3316;44.118;27.258;2022-10-15T06:32:30;10.97;;;6.43;;
6564;SDS011;3316;44.118;27.258;2022-10-15T06:34:56;17.00;;;6.80;;
6564;SDS011;3316;44.118;27.258;2022-10-15T06:37:21;11.20;;;6.93;;
6564;SDS011;3316;44.118;27.258;2022-10-15T06:39:47;14.33;;;6.57;;
6564;SDS011;3316;44.118;27.258;2022-10-15T06:42:12;15.57;;;6.70;;
6564;SDS011;3316;44.118;27.258;2022-10-15T06:44:38;14.17;;;6.67;;
6564;SDS011;3316;44.118;27.258;2022-10-15T06:47:04;17.60;;;7.23;;
6564;SDS011;3316;44.118;27.258;2022-10-15T06:49:30;25.43;;;10.37;;
6564;SDS011;3316;44.118;27.258;2022-10-15T06:51:55;11.37;;;5.90;;
6564;SDS011;3316;44.118;27.258;2022-10-15T06:54:22;11.20;;;6.53;;
6564;SDS011;3316;44.118;27.258;2022-10-15T06:56:47;14.57;;;7.23;;
6564;SDS011;3316;44.118;27.258;2022-10-15T06:59:12;21.43;;;8.17;;
6564;SDS011;3316;44.118;27.258;2022-10-15T07:01:38;18.67;;;6.60;;
6564;SDS011;3316;44.118;27.258;2022-10-15T07:04:03;11.83;;;6.70;;
6564;SDS011;3316;44.118;27.258;2022-10-15T07:06:28;13.77;;;6.60;;
6564;SDS011;3316;44.118;27.258;2022-10-15T07:08:54;19.77;;;9.37;;
6564;SDS011;3316;44.118;27.258;2022-10-15T07:11:19;14.47;;;7.83;;
6564;SDS011;3316;44.118;27.258;2022-10-15T07:13:45;22.77;;;8.47;;
6564;SDS011;3316;44.118;27.258;2022-10-15T07:16:11;19.33;;;6.53;;
6564;SDS011;3316;44.118;27.258;2022-10-15T07:18:37;13.87;;;5.60;;
6564;SDS011;3316;44.118;27.258;2022-10-15T07:21:04;12.20;;;6.20;;
6564;SDS011;3316;44.118;27.258;2022-10-15T07:23:31;15.33;;;5.40;;
6564;SDS011;3316;44.118;27.258;2022-10-15T07:25:57;10.63;;;5.57;;
6564;SDS011;3316;44.118;27.258;2022-10-15T07:28:23;8.13;;;5.07;;
6564;SDS011;3316;44.118;27.258;2022-10-15T07:30:48;8.37;;;5.43;;
6564;SDS011;3316;44.118;27.258;2022-10-15T07:33:14;10.63;;;4.57;;
6564;SDS011;3316;44.118;27.258;2022-10-15T07:35:39;13.37;;;5.37;;
6564;SDS011;3316;44.118;27.258;2022-10-15T07:38:05;10.90;;;5.28;;
6564;SDS011;3316;44.118;27.258;2022-10-15T07:40:30;16.55;;;5.32;;
6564;SDS011;3316;44.118;27.258;2022-10-15T07:42:56;12.18;;;5.80;;
6564;SDS011;3316;44.118;27.258;2022-10-15T07:45:23;10.35;;;5.70;;
6564;SDS011;3316;44.118;27.258;2022-10-15T07:47:49;11.50;;;5.70;;
6564;SDS011;3316;44.118;27.258;2022-10-15T07:50:15;12.70;;;5.93;;
6564;SDS011;3316;44.118;27.258;2022-10-15T07:52:41;10.73;;;5.13;;
6564;SDS011;3316;44.118;27.258;2022-10-15T07:55:06;8.40;;;5.13;;
6564;SDS011;3316;44.118;27.258;2022-10-15T07:57:32;12.73;;;5.70;;
6564;SDS011;3316;44.118;27.258;2022-10-15T07:59:58;18.10;;;6.20;;
6564;SDS011;3316;44.118;27.258;2022-10-15T08:02:23;10.45;;;5.38;;
6564;SDS011;3316;44.118;27.258;2022-10-15T08:04:49;13.00;;;5.47;;
6564;SDS011;3316;44.118;27.258;2022-10-15T08:07:14;15.90;;;5.13;;
6564;SDS011;3316;44.118;27.258;2022-10-15T08:09:40;13.93;;;5.22;;
6564;SDS011;3316;44.118;27.258;2022-10-15T08:12:05;13.55;;;5.63;;
6564;SDS011;3316;44.118;27.258;2022-10-15T08:14:31;21.73;;;6.60;;
6564;SDS011;3316;44.118;27.258;2022-10-15T08:16:57;16.90;;;5.15;;
6564;SDS011;3316;44.118;27.258;2022-10-15T08:19:23;9.55;;;5.00;;
6564;SDS011;3316;44.118;27.258;2022-10-15T08:21:48;15.52;;;5.90;;
6564;SDS011;3316;44.118;27.258;2022-10-15T08:24:14;10.20;;;5.70;;
6564;SDS011;3316;44.118;27.258;2022-10-15T08:26:39;16.17;;;6.22;;
6564;SDS011;3316;44.118;27.258;2022-10-15T08:29:04;9.13;;;4.38;;
6564;SDS011;3316;44.118;27.258;2022-10-15T08:31:30;15.05;;;5.45;;
6564;SDS011;3316;44.118;27.258;2022-10-15T08:33:58;15.30;;;5.13;;
6564;SDS011;3316;44.118;27.258;2022-10-15T08:36:24;15.00;;;5.10;;
6564;SDS011;3316;44.118;27.258;2022-10-15T08:38:50;16.98;;;5.20;;
6564;SDS011;3316;44.118;27.258;2022-10-15T08:44:14;9.25;;;4.63;;
6564;SDS011;3316;44.118;27.258;2022-10-15T08:46:57;10.35;;;4.47;;
6564;SDS011;3316;44.118;27.258;2022-10-15T08:52:02;8.70;;;4.15;;
6564;SDS011;3316;44.118;27.258;2022-10-15T08:54:38;12.82;;;5.22;;
6564;SDS011;3316;44.118;27.258;2022-10-15T08:57:10;10.63;;;5.22;;
6564;SDS011;3316;44.118;27.258;2022-10-15T09:00:31;14.20;;;5.60;;
6564;SDS011;3316;44.118;27.258;2022-10-15T09:02:51;26.85;;;11.13;;
6564;SDS011;3316;44.118;27.258;2022-10-15T09:05:27;16.92;;;7.40;;
6564;SDS011;3316;44.118;27.258;2022-10-15T09:08:05;17.90;;;6.75;;
6564;SDS011;3316;44.118;27.258;2022-10-15T09:10:51;9.75;;;5.78;;
6564;SDS011;3316;44.118;27.258;2022-10-15T09:13:24;7.93;;;4.15;;
6564;SDS011;3316;44.118;27.258;2022-10-15T09:15:53;13.88;;;5.13;;
6564;SDS011;3316;44.118;27.258;2022-10-15T09:18:40;13.25;;;4.85;;
6564;SDS011;3316;44.118;27.258;2022-10-15T09:21:08;15.82;;;5.53;;
6564;SDS011;3316;44.118;27.258;2022-10-15T09:23:35;11.13;;;4.75;;
6564;SDS011;3316;44.118;27.258;2022-10-15T09:32:27;13.88;;;5.28;;
6564;SDS011;3316;44.118;27.258;2022-10-15T09:35:00;9.82;;;5.90;;
6564;SDS011;3316;44.118;27.258;2022-10-15T09:40:15;10.38;;;5.20;;
6564;SDS011;3316;44.118;27.258;2022-10-15T09:42:44;9.90;;;5.72;;
6564;SDS011;3316;44.118;27.258;2022-10-15T09:45:14;10.07;;;6.28;;
6564;SDS011;3316;44.118;27.258;2022-10-15T09:47:41;8.82;;;6.32;;
6564;SDS011;3316;44.118;27.258;2022-10-15T09:50:08;15.77;;;6.35;;
6564;SDS011;3316;44.118;27.258;2022-10-15T10:01:30;15.32;;;5.95;;
6564;SDS011;3316;44.118;27.258;2022-10-15T10:04:11;21.60;;;10.15;;
6564;SDS011;3316;44.118;27.258;2022-10-15T10:07:04;11.18;;;6.93;;
6564;SDS011;3316;44.118;27.258;2022-10-15T10:09:38;7.72;;;5.93;;
6564;SDS011;3316;44.118;27.258;2022-10-15T10:12:18;15.40;;;7.18;;
6564;SDS011;3316;44.118;27.258;2022-10-15T10:17:50;9.43;;;6.40;;
6564;SDS011;3316;44.118;27.258;2022-10-15T10:20:18;15.57;;;5.82;;
6564;SDS011;3316;44.118;27.258;2022-10-15T10:28:16;10.95;;;4.45;;
6564;SDS011;3316;44.118;27.258;2022-10-15T10:33:26;9.43;;;4.47;;
6564;SDS011;3316;44.118;27.258;2022-10-15T10:35:56;7.53;;;4.20;;
6564;SDS011;3316;44.118;27.258;2022-10-15T10:38:36;8.33;;;4.83;;
6564;SDS011;3316;44.118;27.258;2022-10-15T10:41:08;7.10;;;4.63;;
6564;SDS011;3316;44.118;27.258;2022-10-15T10:43:37;9.40;;;4.40;;
6564;SDS011;3316;44.118;27.258;2022-10-15T10:46:17;8.73;;;4.67;;
6564;SDS011;3316;44.118;27.258;2022-10-15T10:51:14;7.13;;;4.40;;
6564;SDS011;3316;44.118;27.258;2022-10-15T10:56:24;9.83;;;4.00;;
6564;SDS011;3316;44.118;27.258;2022-10-15T10:59:05;5.37;;;3.93;;
6564;SDS011;3316;44.118;27.258;2022-10-15T11:01:49;20.33;;;4.73;;
6564;SDS011;3316;44.118;27.258;2022-10-15T11:04:26;9.27;;;4.37;;
6564;SDS011;3316;44.118;27.258;2022-10-15T11:07:03;21.93;;;4.73;;
6564;SDS011;3316;44.118;27.258;2022-10-15T11:18:06;5.13;;;3.50;;
6564;SDS011;3316;44.118;27.258;2022-10-15T11:26:32;5.73;;;3.13;;
6564;SDS011;3316;44.118;27.258;2022-10-15T11:35:34;4.63;;;2.73;;
6564;SDS011;3316;44.118;27.258;2022-10-15T11:38:42;8.60;;;3.30;;
6564;SDS011;3316;44.118;27.258;2022-10-15T11:41:36;8.80;;;3.40;;
6564;SDS011;3316;44.118;27.258;2022-10-15T11:49:38;5.93;;;3.23;;
6564;SDS011;3316;44.118;27.258;2022-10-15T11:55:48;6.87;;;3.13;;
6564;SDS011;3316;44.118;27.258;2022-10-15T11:57:48;6.50;;;2.87;;
6564;SDS011;3316;44.118;27.258;2022-10-15T12:00:31;27.50;;;4.50;;
6564;SDS011;3316;44.118;27.258;2022-10-15T12:03:10;10.43;;;3.63;;
6564;SDS011;3316;44.118;27.258;2022-10-15T12:05:42;6.87;;;3.27;;
6564;SDS011;3316;44.118;27.258;2022-10-15T12:08:12;7.17;;;3.37;;
6564;SDS011;3316;44.118;27.258;2022-10-15T12:10:50;8.23;;;3.30;;
6564;SDS011;3316;44.118;27.258;2022-10-15T12:13:59;4.43;;;2.90;;
6564;SDS011;3316;44.118;27.258;2022-10-15T12:19:18;3.60;;;2.57;;
6564;SDS011;3316;44.118;27.258;2022-10-15T12:22:29;3.90;;;3.07;;
6564;SDS011;3316;44.118;27.258;2022-10-15T12:29:42;7.87;;;2.97;;
6564;SDS011;3316;44.118;27.258;2022-10-15T12:35:05;9.40;;;2.90;;
6564;SDS011;3316;44.118;27.258;2022-10-15T12:37:40;4.87;;;2.57;;
6564;SDS011;3316;44.118;27.258;2022-10-15T12:45:56;13.23;;;3.60;;
6564;SDS011;3316;44.118;27.258;2022-10-15T12:48:28;9.57;;;3.30;;
6564;SDS011;3316;44.118;27.258;2022-10-15T12:53:51;3.10;;;2.80;;
6564;SDS011;3316;44.118;27.258;2022-10-15T12:56:21;6.03;;;3.03;;
6564;SDS011;3316;44.118;27.258;2022-10-15T12:58:50;3.67;;;3.00;;
6564;SDS011;3316;44.118;27.258;2022-10-15T13:08:49;7.50;;;3.20;;
6564;SDS011;3316;44.118;27.258;2022-10-15T13:11:20;18.80;;;4.40;;
6564;SDS011;3316;44.118;27.258;2022-10-15T13:13:53;6.87;;;3.73;;
6564;SDS011;3316;44.118;27.258;2022-10-15T13:16:25;5.40;;;3.77;;
6564;SDS011;3316;44.118;27.258;2022-10-15T13:18:51;5.23;;;4.07;;
6564;SDS011;3316;44.118;27.258;2022-10-15T13:21:19;8.23;;;4.20;;
6564;SDS011;3316;44.118;27.258;2022-10-15T13:23:46;9.53;;;4.80;;
6564;SDS011;3316;44.118;27.258;2022-10-15T13:26:21;6.37;;;4.00;;
6564;SDS011;3316;44.118;27.258;2022-10-15T13:28:51;5.63;;;4.57;;
6564;SDS011;3316;44.118;27.258;2022-10-15T13:31:23;11.13;;;5.17;;
6564;SDS011;3316;44.118;27.258;2022-10-15T13:33:50;8.63;;;5.13;;
6564;SDS011;3316;44.118;27.258;2022-10-15T13:36:21;9.27;;;4.87;;
6564;SDS011;3316;44.118;27.258;2022-10-15T13:38:53;7.23;;;5.10;;
6564;SDS011;3316;44.118;27.258;2022-10-15T13:41:41;8.20;;;4.77;;
6564;SDS011;3316;44.118;27.258;2022-10-15T13:44:17;24.33;;;5.67;;
6564;SDS011;3316;44.118;27.258;2022-10-15T13:46:44;6.93;;;4.70;;
6564;SDS011;3316;44.118;27.258;2022-10-15T13:49:11;7.87;;;4.23;;
6564;SDS011;3316;44.118;27.258;2022-10-15T13:51:38;9.80;;;3.57;;
6564;SDS011;3316;44.118;27.258;2022-10-15T13:54:07;7.00;;;3.83;;
6564;SDS011;3316;44.118;27.258;2022-10-15T13:56:36;8.43;;;3.60;;
6564;SDS011;3316;44.118;27.258;2022-10-15T13:59:06;5.10;;;3.67;;
6564;SDS011;3316;44.118;27.258;2022-10-15T14:01:48;8.23;;;3.13;;
6564;SDS011;3316;44.118;27.258;2022-10-15T14:04:18;10.13;;;4.13;;
6564;SDS011;3316;44.118;27.258;2022-10-15T14:06:55;4.87;;;3.30;;
6564;SDS011;3316;44.118;27.258;2022-10-15T14:09:26;13.90;;;3.93;;
6564;SDS011;3316;44.118;27.258;2022-10-15T14:11:55;6.03;;;4.27;;
6564;SDS011;3316;44.118;27.258;2022-10-15T14:16:59;9.37;;;4.13;;
6564;SDS011;3316;44.118;27.258;2022-10-15T14:19:28;5.77;;;3.43;;
6564;SDS011;3316;44.118;27.258;2022-10-15T14:21:56;10.77;;;3.97;;
6564;SDS011;3316;44.118;27.258;2022-10-15T14:24:27;10.93;;;4.57;;
6564;SDS011;3316;44.118;27.258;2022-10-15T14:29:44;10.17;;;5.17;;
6564;SDS011;3316;44.118;27.258;2022-10-15T14:32:22;11.53;;;5.27;;
6564;SDS011;3316;44.118;27.258;2022-10-15T14:37:59;8.83;;;4.63;;
6564;SDS011;3316;44.118;27.258;2022-10-15T14:40:26;7.87;;;4.13;;
6564;SDS011;3316;44.118;27.258;2022-10-15T14:43:05;8.37;;;4.07;;
6564;SDS011;3316;44.118;27.258;2022-10-15T14:45:40;3.87;;;3.30;;
6564;SDS011;3316;44.118;27.258;2022-10-15T14:48:19;9.77;;;3.87;;
6564;SDS011;3316;44.118;27.258;2022-10-15T14:50:59;9.17;;;4.03;;
6564;SDS011;3316;44.118;27.258;2022-10-15T14:53:30;11.13;;;4.40;;
6564;SDS011;3316;44.118;27.258;2022-10-15T14:56:20;7.20;;;4.03;;
6564;SDS011;3316;44.118;27.258;2022-10-15T14:58:49;6.27;;;4.17;;
6564;SDS011;3316;44.118;27.258;2022-10-15T15:01:18;6.53;;;4.70;;
6564;SDS011;3316;44.118;27.258;2022-10-15T15:03:46;8.33;;;5.43;;
6564;SDS011;3316;44.118;27.258;2022-10-15T15:06:14;5.73;;;3.57;;
6564;SDS011;3316;44.118;27.258;2022-10-15T15:08:39;9.10;;;3.00;;
6564;SDS011;3316;44.118;27.258;2022-10-15T15:11:06;7.50;;;4.03;;
6564;SDS011;3316;44.118;27.258;2022-10-15T15:13:41;5.33;;;3.33;;
6564;SDS011;3316;44.118;27.258;2022-10-15T15:16:12;8.80;;;3.60;;
6564;SDS011;3316;44.118;27.258;2022-10-15T15:18:39;6.27;;;4.83;;
6564;SDS011;3316;44.118;27.258;2022-10-15T15:21:09;10.67;;;4.37;;
6564;SDS011;3316;44.118;27.258;2022-10-15T15:23:37;7.27;;;4.63;;
6564;SDS011;3316;44.118;27.258;2022-10-15T15:26:03;11.07;;;4.40;;
6564;SDS011;3316;44.118;27.258;2022-10-15T15:28:28;8.47;;;5.53;;
6564;SDS011;3316;44.118;27.258;2022-10-15T15:30:57;7.27;;;5.43;;
6564;SDS011;3316;44.118;27.258;2022-10-15T15:33:25;17.33;;;5.17;;
6564;SDS011;3316;44.118;27.258;2022-10-15T15:35:59;12.40;;;4.23;;
6564;SDS011;3316;44.118;27.258;2022-10-15T15:38:33;8.10;;;5.37;;
6564;SDS011;3316;44.118;27.258;2022-10-15T15:41:00;12.03;;;4.50;;
6564;SDS011;3316;44.118;27.258;2022-10-15T15:43:28;11.63;;;4.60;;
6564;SDS011;3316;44.118;27.258;2022-10-15T15:45:53;9.77;;;4.57;;
6564;SDS011;3316;44.118;27.258;2022-10-15T15:48:19;9.77;;;4.47;;
6564;SDS011;3316;44.118;27.258;2022-10-15T15:50:44;7.97;;;4.53;;
6564;SDS011;3316;44.118;27.258;2022-10-15T15:53:10;12.93;;;6.00;;
6564;SDS011;3316;44.118;27.258;2022-10-15T15:55:36;11.67;;;5.93;;
6564;SDS011;3316;44.118;27.258;2022-10-15T15:58:02;13.93;;;5.90;;
6564;SDS011;3316;44.118;27.258;2022-10-15T16:00:27;11.83;;;4.87;;
6564;SDS011;3316;44.118;27.258;2022-10-15T16:02:53;15.67;;;6.50;;
6564;SDS011;3316;44.118;27.258;2022-10-15T16:05:18;11.40;;;5.53;;
6564;SDS011;3316;44.118;27.258;2022-10-15T16:07:44;11.30;;;5.70;;
6564;SDS011;3316;44.118;27.258;2022-10-15T16:10:10;9.67;;;5.80;;
6564;SDS011;3316;44.118;27.258;2022-10-15T16:12:36;14.70;;;7.23;;
6564;SDS011;3316;44.118;27.258;2022-10-15T16:15:02;17.40;;;6.10;;
6564;SDS011;3316;44.118;27.258;2022-10-15T16:17:29;15.47;;;7.17;;
6564;SDS011;3316;44.118;27.258;2022-10-15T16:19:54;14.87;;;7.03;;
6564;SDS011;3316;44.118;27.258;2022-10-15T16:22:19;22.10;;;8.93;;
6564;SDS011;3316;44.118;27.258;2022-10-15T16:24:45;10.33;;;6.07;;
6564;SDS011;3316;44.118;27.258;2022-10-15T16:27:10;18.87;;;7.23;;
6564;SDS011;3316;44.118;27.258;2022-10-15T16:29:36;14.63;;;7.33;;
6564;SDS011;3316;44.118;27.258;2022-10-15T16:32:01;13.80;;;6.17;;
6564;SDS011;3316;44.118;27.258;2022-10-15T16:34:27;11.87;;;7.00;;
6564;SDS011;3316;44.118;27.258;2022-10-15T16:36:53;12.23;;;6.73;;
6564;SDS011;3316;44.118;27.258;2022-10-15T16:39:18;15.07;;;6.97;;
6564;SDS011;3316;44.118;27.258;2022-10-15T16:41:44;12.70;;;7.03;;
6564;SDS011;3316;44.118;27.258;2022-10-15T16:44:09;11.50;;;7.57;;
6564;SDS011;3316;44.118;27.258;2022-10-15T16:46:35;13.57;;;8.20;;
6564;SDS011;3316;44.118;27.258;2022-10-15T16:49:00;12.97;;;8.33;;
6564;SDS011;3316;44.118;27.258;2022-10-15T16:51:26;23.00;;;12.77;;
6564;SDS011;3316;44.118;27.258;2022-10-15T16:53:51;20.53;;;10.27;;
6564;SDS011;3316;44.118;27.258;2022-10-15T16:56:19;34.63;;;12.97;;
6564;SDS011;3316;44.118;27.258;2022-10-15T16:58:49;18.17;;;11.20;;
6564;SDS011;3316;44.118;27.258;2022-10-15T17:01:19;17.17;;;11.60;;
6564;SDS011;3316;44.118;27.258;2022-10-15T17:03:46;25.60;;;11.20;;
6564;SDS011;3316;44.118;27.258;2022-10-15T17:06:14;20.80;;;10.57;;
6564;SDS011;3316;44.118;27.258;2022-10-15T17:11:13;24.20;;;10.57;;
6564;SDS011;3316;44.118;27.258;2022-10-15T17:13:46;19.57;;;9.50;;
6564;SDS011;3316;44.118;27.258;2022-10-15T17:16:58;20.40;;;10.00;;
6564;SDS011;3316;44.118;27.258;2022-10-15T17:19:03;18.87;;;10.90;;